sensor_id;sensor_type;location;lat;lon;timestamp;temperature;humidity
67777;DHT22;54576;52.020;5.536;2023-05-29T00:01:44;11.60;76.70
67777;DHT22;54576;52.020;5.536;2023-05-29T00:06:37;11.60;91.30
67777;DHT22;54576;52.020;5.536;2023-05-29T00:09:04;11.60;90.40
67777;DHT22;54576;52.020;5.536;2023-05-29T00:11:30;11.50;91.90
67777;DHT22;54576;52.020;5.536;2023-05-29T00:13:56;11.40;80.80
67777;DHT22;54576;52.020;5.536;2023-05-29T00:16:22;11.40;77.60
67777;DHT22;54576;52.020;5.536;2023-05-29T00:18:49;11.30;78.60
67777;DHT22;54576;52.020;5.536;2023-05-29T00:21:15;11.30;80.40
67777;DHT22;54576;52.020;5.536;2023-05-29T00:23:41;11.30;77.80
67777;DHT22;54576;52.020;5.536;2023-05-29T00:26:07;11.30;78.20
67777;DHT22;54576;52.020;5.536;2023-05-29T00:28:34;11.40;97.60
67777;DHT22;54576;52.020;5.536;2023-05-29T00:31:00;11.30;98.20
67777;DHT22;54576;52.020;5.536;2023-05-29T00:33:26;11.30;97.60
67777;DHT22;54576;52.020;5.536;2023-05-29T00:35:51;11.30;97.40
67777;DHT22;54576;52.020;5.536;2023-05-29T00:38:18;11.30;98.70
67777;DHT22;54576;52.020;5.536;2023-05-29T00:40:43;11.30;99.90
67777;DHT22;54576;52.020;5.536;2023-05-29T00:43:09;11.20;78.40
67777;DHT22;54576;52.020;5.536;2023-05-29T00:45:35;11.10;77.00
67777;DHT22;54576;52.020;5.536;2023-05-29T00:48:03;11.10;77.60
67777;DHT22;54576;52.020;5.536;2023-05-29T00:50:29;11.10;78.20
67777;DHT22;54576;52.020;5.536;2023-05-29T00:52:55;11.10;79.90
67777;DHT22;54576;52.020;5.536;2023-05-29T00:55:21;11.10;79.90
67777;DHT22;54576;52.020;5.536;2023-05-29T00:57:47;11.10;77.60
67777;DHT22;54576;52.020;5.536;2023-05-29T01:00:13;11.00;76.80
67777;DHT22;54576;52.020;5.536;2023-05-29T01:02:40;11.00;80.40
67777;DHT22;54576;52.020;5.536;2023-05-29T01:05:10;11.00;77.80
67777;DHT22;54576;52.020;5.536;2023-05-29T01:07:37;11.00;79.00
67777;DHT22;54576;52.020;5.536;2023-05-29T01:15:07;12.70;99.90
67777;DHT22;54576;52.020;5.536;2023-05-29T01:17:51;10.90;79.70
67777;DHT22;54576;52.020;5.536;2023-05-29T01:27:45;10.80;88.50
67777;DHT22;54576;52.020;5.536;2023-05-29T01:30:12;10.70;84.70
67777;DHT22;54576;52.020;5.536;2023-05-29T01:32:40;10.70;84.50
67777;DHT22;54576;52.020;5.536;2023-05-29T01:35:07;10.70;81.30
67777;DHT22;54576;52.020;5.536;2023-05-29T01:37:33;10.70;86.30
67777;DHT22;54576;52.020;5.536;2023-05-29T01:42:27;10.60;83.50
67777;DHT22;54576;52.020;5.536;2023-05-29T01:44:53;10.70;87.70
67777;DHT22;54576;52.020;5.536;2023-05-29T01:47:19;10.60;81.70
67777;DHT22;54576;52.020;5.536;2023-05-29T01:49:48;10.60;91.60
67777;DHT22;54576;52.020;5.536;2023-05-29T01:52:14;10.60;93.60
67777;DHT22;54576;52.020;5.536;2023-05-29T01:54:40;10.60;93.10
67777;DHT22;54576;52.020;5.536;2023-05-29T01:57:05;10.50;80.60
67777;DHT22;54576;52.020;5.536;2023-05-29T01:59:32;10.40;87.90
67777;DHT22;54576;52.020;5.536;2023-05-29T02:02:08;10.40;86.50
67777;DHT22;54576;52.020;5.536;2023-05-29T02:04:33;10.40;93.90
67777;DHT22;54576;52.020;5.536;2023-05-29T02:06:59;10.30;85.00
67777;DHT22;54576;52.020;5.536;2023-05-29T02:09:24;10.30;84.90
67777;DHT22;54576;52.020;5.536;2023-05-29T02:11:51;10.30;81.90
67777;DHT22;54576;52.020;5.536;2023-05-29T02:16:42;10.30;93.00
67777;DHT22;54576;52.020;5.536;2023-05-29T02:19:09;10.20;86.60
67777;DHT22;54576;52.020;5.536;2023-05-29T02:28:56;10.10;80.70
67777;DHT22;54576;52.020;5.536;2023-05-29T02:31:22;10.00;82.00
67777;DHT22;54576;52.020;5.536;2023-05-29T02:33:48;10.00;83.80
67777;DHT22;54576;52.020;5.536;2023-05-29T02:36:14;9.90;85.00
67777;DHT22;54576;52.020;5.536;2023-05-29T02:38:41;9.90;81.50
67777;DHT22;54576;52.020;5.536;2023-05-29T02:41:07;9.90;84.50
67777;DHT22;54576;52.020;5.536;2023-05-29T02:43:32;9.90;84.30
67777;DHT22;54576;52.020;5.536;2023-05-29T02:45:58;9.90;83.60
67777;DHT22;54576;52.020;5.536;2023-05-29T02:48:23;9.90;85.40
67777;DHT22;54576;52.020;5.536;2023-05-29T02:50:50;9.90;86.10
67777;DHT22;54576;52.020;5.536;2023-05-29T02:53:15;9.80;84.30
67777;DHT22;54576;52.020;5.536;2023-05-29T02:55:41;9.80;88.20
67777;DHT22;54576;52.020;5.536;2023-05-29T02:58:08;9.80;86.50
67777;DHT22;54576;52.020;5.536;2023-05-29T03:00:33;9.80;90.50
67777;DHT22;54576;52.020;5.536;2023-05-29T03:03:05;9.80;84.90
67777;DHT22;54576;52.020;5.536;2023-05-29T03:05:31;9.70;90.30
67777;DHT22;54576;52.020;5.536;2023-05-29T03:07:57;9.70;87.60
67777;DHT22;54576;52.020;5.536;2023-05-29T03:10:22;9.70;82.50
67777;DHT22;54576;52.020;5.536;2023-05-29T03:12:48;9.70;85.00
67777;DHT22;54576;52.020;5.536;2023-05-29T03:15:13;9.70;85.40
67777;DHT22;54576;52.020;5.536;2023-05-29T03:17:39;9.70;90.00
67777;DHT22;54576;52.020;5.536;2023-05-29T03:20:05;9.60;92.00
67777;DHT22;54576;52.020;5.536;2023-05-29T03:22:32;9.60;88.70
67777;DHT22;54576;52.020;5.536;2023-05-29T03:24:58;9.60;88.50
67777;DHT22;54576;52.020;5.536;2023-05-29T03:27:23;9.60;86.70
67777;DHT22;54576;52.020;5.536;2023-05-29T03:29:49;9.60;84.30
67777;DHT22;54576;52.020;5.536;2023-05-29T03:32:17;9.60;84.60
67777;DHT22;54576;52.020;5.536;2023-05-29T03:34:42;9.60;84.40
67777;DHT22;54576;52.020;5.536;2023-05-29T03:37:08;9.60;84.70
67777;DHT22;54576;52.020;5.536;2023-05-29T03:39:34;9.70;89.10
67777;DHT22;54576;52.020;5.536;2023-05-29T03:41:59;9.70;82.80
67777;DHT22;54576;52.020;5.536;2023-05-29T03:44:26;9.70;82.80
67777;DHT22;54576;52.020;5.536;2023-05-29T03:46:52;9.70;85.80
67777;DHT22;54576;52.020;5.536;2023-05-29T03:49:17;9.70;84.70
67777;DHT22;54576;52.020;5.536;2023-05-29T03:51:43;9.70;87.40
67777;DHT22;54576;52.020;5.536;2023-05-29T03:54:09;9.70;84.60
67777;DHT22;54576;52.020;5.536;2023-05-29T03:56:35;9.70;80.80
67777;DHT22;54576;52.020;5.536;2023-05-29T03:59:01;9.70;86.30
67777;DHT22;54576;52.020;5.536;2023-05-29T04:01:28;9.70;86.10
67777;DHT22;54576;52.020;5.536;2023-05-29T04:03:54;9.70;87.00
67777;DHT22;54576;52.020;5.536;2023-05-29T04:06:19;9.70;84.70
67777;DHT22;54576;52.020;5.536;2023-05-29T04:08:45;9.70;84.40
67777;DHT22;54576;52.020;5.536;2023-05-29T04:11:11;9.70;80.90
67777;DHT22;54576;52.020;5.536;2023-05-29T04:13:37;9.80;82.90
67777;DHT22;54576;52.020;5.536;2023-05-29T04:16:03;9.80;85.40
67777;DHT22;54576;52.020;5.536;2023-05-29T04:18:29;9.80;84.90
67777;DHT22;54576;52.020;5.536;2023-05-29T04:20:54;9.80;81.00
67777;DHT22;54576;52.020;5.536;2023-05-29T04:23:20;9.90;87.90
67777;DHT22;54576;52.020;5.536;2023-05-29T04:25:46;9.90;85.50
67777;DHT22;54576;52.020;5.536;2023-05-29T04:28:11;9.90;82.40
67777;DHT22;54576;52.020;5.536;2023-05-29T04:30:37;9.90;83.20
67777;DHT22;54576;52.020;5.536;2023-05-29T04:33:05;10.00;82.40
67777;DHT22;54576;52.020;5.536;2023-05-29T04:35:32;10.10;82.20
67777;DHT22;54576;52.020;5.536;2023-05-29T04:37:57;10.40;82.30
67777;DHT22;54576;52.020;5.536;2023-05-29T04:40:23;10.90;79.30
67777;DHT22;54576;52.020;5.536;2023-05-29T04:42:51;11.30;77.70
67777;DHT22;54576;52.020;5.536;2023-05-29T04:45:19;11.60;77.50
67777;DHT22;54576;52.020;5.536;2023-05-29T04:47:45;11.80;92.00
67777;DHT22;54576;52.020;5.536;2023-05-29T04:50:12;12.00;76.00
67777;DHT22;54576;52.020;5.536;2023-05-29T04:52:38;12.10;75.80
67777;DHT22;54576;52.020;5.536;2023-05-29T04:55:04;12.40;75.80
67777;DHT22;54576;52.020;5.536;2023-05-29T04:57:30;12.50;74.40
67777;DHT22;54576;52.020;5.536;2023-05-29T04:59:55;12.70;74.40
67777;DHT22;54576;52.020;5.536;2023-05-29T05:02:21;12.90;73.00
67777;DHT22;54576;52.020;5.536;2023-05-29T05:04:47;12.90;72.70
67777;DHT22;54576;52.020;5.536;2023-05-29T05:07:13;13.00;73.70
67777;DHT22;54576;52.020;5.536;2023-05-29T05:09:41;13.20;73.40
67777;DHT22;54576;52.020;5.536;2023-05-29T05:12:07;13.50;72.50
67777;DHT22;54576;52.020;5.536;2023-05-29T05:14:32;13.50;72.10
67777;DHT22;54576;52.020;5.536;2023-05-29T05:16:58;13.50;72.00
67777;DHT22;54576;52.020;5.536;2023-05-29T05:19:23;13.60;71.90
67777;DHT22;54576;52.020;5.536;2023-05-29T05:21:50;13.70;71.40
67777;DHT22;54576;52.020;5.536;2023-05-29T05:24:16;13.70;71.30
67777;DHT22;54576;52.020;5.536;2023-05-29T05:26:41;13.70;71.70
67777;DHT22;54576;52.020;5.536;2023-05-29T05:29:07;13.60;71.30
67777;DHT22;54576;52.020;5.536;2023-05-29T05:31:32;13.70;71.60
67777;DHT22;54576;52.020;5.536;2023-05-29T05:33:58;13.80;71.50
67777;DHT22;54576;52.020;5.536;2023-05-29T05:36:25;13.80;71.20
67777;DHT22;54576;52.020;5.536;2023-05-29T05:38:51;13.90;70.90
67777;DHT22;54576;52.020;5.536;2023-05-29T05:41:16;14.00;70.50
67777;DHT22;54576;52.020;5.536;2023-05-29T05:43:42;14.10;70.90
67777;DHT22;54576;52.020;5.536;2023-05-29T05:46:07;14.10;70.70
67777;DHT22;54576;52.020;5.536;2023-05-29T05:48:34;14.10;71.20
67777;DHT22;54576;52.020;5.536;2023-05-29T05:51:00;14.20;70.50
67777;DHT22;54576;52.020;5.536;2023-05-29T05:53:25;14.40;70.60
67777;DHT22;54576;52.020;5.536;2023-05-29T05:55:51;14.50;69.50
67777;DHT22;54576;52.020;5.536;2023-05-29T05:58:16;14.60;91.30
67777;DHT22;54576;52.020;5.536;2023-05-29T06:00:42;14.60;97.40
67777;DHT22;54576;52.020;5.536;2023-05-29T06:03:08;14.60;69.40
67777;DHT22;54576;52.020;5.536;2023-05-29T06:05:33;14.50;69.80
67777;DHT22;54576;52.020;5.536;2023-05-29T06:08:01;14.70;99.90
67777;DHT22;54576;52.020;5.536;2023-05-29T06:10:27;14.80;70.50
67777;DHT22;54576;52.020;5.536;2023-05-29T06:12:53;14.80;69.20
67777;DHT22;54576;52.020;5.536;2023-05-29T06:15:18;14.90;69.60
67777;DHT22;54576;52.020;5.536;2023-05-29T06:17:44;15.10;69.00
67777;DHT22;54576;52.020;5.536;2023-05-29T06:20:10;15.10;69.10
67777;DHT22;54576;52.020;5.536;2023-05-29T06:22:37;15.10;69.10
67777;DHT22;54576;52.020;5.536;2023-05-29T06:25:03;15.50;68.20
67777;DHT22;54576;52.020;5.536;2023-05-29T06:27:28;15.60;67.60
67777;DHT22;54576;52.020;5.536;2023-05-29T06:29:54;15.50;67.90
67777;DHT22;54576;52.020;5.536;2023-05-29T06:32:19;15.50;67.90
67777;DHT22;54576;52.020;5.536;2023-05-29T06:34:45;15.90;68.10
67777;DHT22;54576;52.020;5.536;2023-05-29T06:37:11;15.80;65.80
67777;DHT22;54576;52.020;5.536;2023-05-29T06:39:36;15.80;65.90
67777;DHT22;54576;52.020;5.536;2023-05-29T06:42:02;15.80;66.20
67777;DHT22;54576;52.020;5.536;2023-05-29T06:44:28;15.70;65.10
67777;DHT22;54576;52.020;5.536;2023-05-29T06:46:53;15.80;66.20
67777;DHT22;54576;52.020;5.536;2023-05-29T06:49:19;15.80;66.40
67777;DHT22;54576;52.020;5.536;2023-05-29T06:51:44;15.70;66.30
67777;DHT22;54576;52.020;5.536;2023-05-29T06:54:10;15.60;66.10
67777;DHT22;54576;52.020;5.536;2023-05-29T06:56:35;15.50;95.10
67777;DHT22;54576;52.020;5.536;2023-05-29T06:59:01;15.50;66.30
67777;DHT22;54576;52.020;5.536;2023-05-29T07:01:29;15.60;96.20
67777;DHT22;54576;52.020;5.536;2023-05-29T07:03:55;15.50;65.80
67777;DHT22;54576;52.020;5.536;2023-05-29T07:08:47;15.50;63.40
67777;DHT22;54576;52.020;5.536;2023-05-29T07:11:12;15.60;64.60
67777;DHT22;54576;52.020;5.536;2023-05-29T07:13:38;15.30;63.90
67777;DHT22;54576;52.020;5.536;2023-05-29T07:16:04;15.40;77.00
67777;DHT22;54576;52.020;5.536;2023-05-29T07:18:29;15.50;70.60
67777;DHT22;54576;52.020;5.536;2023-05-29T07:21:00;15.50;63.80
67777;DHT22;54576;52.020;5.536;2023-05-29T07:23:25;15.60;63.20
67777;DHT22;54576;52.020;5.536;2023-05-29T07:25:51;15.60;62.60
67777;DHT22;54576;52.020;5.536;2023-05-29T07:28:16;15.60;65.90
67777;DHT22;54576;52.020;5.536;2023-05-29T07:30:42;15.60;62.10
67777;DHT22;54576;52.020;5.536;2023-05-29T07:33:07;15.60;74.00
67777;DHT22;54576;52.020;5.536;2023-05-29T07:40:26;15.40;61.00
67777;DHT22;54576;52.020;5.536;2023-05-29T07:45:17;15.60;60.90
67777;DHT22;54576;52.020;5.536;2023-05-29T07:47:44;15.50;61.60
67777;DHT22;54576;52.020;5.536;2023-05-29T07:50:10;15.50;61.40
67777;DHT22;54576;52.020;5.536;2023-05-29T07:52:36;15.50;61.00
67777;DHT22;54576;52.020;5.536;2023-05-29T07:55:01;15.40;61.20
67777;DHT22;54576;52.020;5.536;2023-05-29T07:57:28;15.40;61.40
67777;DHT22;54576;52.020;5.536;2023-05-29T07:59:53;15.40;61.40
67777;DHT22;54576;52.020;5.536;2023-05-29T08:02:19;15.50;61.10
67777;DHT22;54576;52.020;5.536;2023-05-29T08:04:44;15.30;60.70
67777;DHT22;54576;52.020;5.536;2023-05-29T08:07:10;15.20;61.20
67777;DHT22;54576;52.020;5.536;2023-05-29T08:09:36;15.20;61.00
67777;DHT22;54576;52.020;5.536;2023-05-29T08:12:01;15.40;61.00
67777;DHT22;54576;52.020;5.536;2023-05-29T08:14:27;15.40;60.60
67777;DHT22;54576;52.020;5.536;2023-05-29T08:16:53;15.50;60.70
67777;DHT22;54576;52.020;5.536;2023-05-29T08:19:18;15.50;60.40
67777;DHT22;54576;52.020;5.536;2023-05-29T08:21:44;15.50;60.50
67777;DHT22;54576;52.020;5.536;2023-05-29T08:24:10;15.30;59.70
67777;DHT22;54576;52.020;5.536;2023-05-29T08:26:35;15.30;60.00
67777;DHT22;54576;52.020;5.536;2023-05-29T08:29:01;15.30;60.20
67777;DHT22;54576;52.020;5.536;2023-05-29T08:31:27;15.40;59.60
67777;DHT22;54576;52.020;5.536;2023-05-29T08:33:53;15.50;60.00
67777;DHT22;54576;52.020;5.536;2023-05-29T08:36:19;15.60;59.70
67777;DHT22;54576;52.020;5.536;2023-05-29T08:38:48;15.70;59.20
67777;DHT22;54576;52.020;5.536;2023-05-29T08:41:43;15.70;59.00
67777;DHT22;54576;52.020;5.536;2023-05-29T08:44:07;15.70;58.00
67777;DHT22;54576;52.020;5.536;2023-05-29T08:46:33;15.90;59.30
67777;DHT22;54576;52.020;5.536;2023-05-29T08:49:01;16.10;59.00
67777;DHT22;54576;52.020;5.536;2023-05-29T08:51:31;16.10;58.70
67777;DHT22;54576;52.020;5.536;2023-05-29T08:53:57;16.20;59.00
67777;DHT22;54576;52.020;5.536;2023-05-29T08:56:23;16.10;58.90
67777;DHT22;54576;52.020;5.536;2023-05-29T08:58:49;16.20;59.40
67777;DHT22;54576;52.020;5.536;2023-05-29T09:01:16;16.30;59.20
67777;DHT22;54576;52.020;5.536;2023-05-29T09:03:42;16.40;59.20
67777;DHT22;54576;52.020;5.536;2023-05-29T09:06:09;16.40;59.20
67777;DHT22;54576;52.020;5.536;2023-05-29T09:08:35;16.50;59.10
67777;DHT22;54576;52.020;5.536;2023-05-29T09:11:01;16.70;59.40
67777;DHT22;54576;52.020;5.536;2023-05-29T09:13:26;16.60;58.50
67777;DHT22;54576;52.020;5.536;2023-05-29T09:15:59;16.50;59.10
67777;DHT22;54576;52.020;5.536;2023-05-29T09:18:30;16.40;58.10
67777;DHT22;54576;52.020;5.536;2023-05-29T09:20:56;16.40;58.80
67777;DHT22;54576;52.020;5.536;2023-05-29T09:23:22;16.40;58.10
67777;DHT22;54576;52.020;5.536;2023-05-29T09:25:52;16.40;58.40
67777;DHT22;54576;52.020;5.536;2023-05-29T09:28:19;16.60;57.80
67777;DHT22;54576;52.020;5.536;2023-05-29T09:30:46;16.80;58.30
67777;DHT22;54576;52.020;5.536;2023-05-29T09:33:14;16.70;57.70
67777;DHT22;54576;52.020;5.536;2023-05-29T09:35:45;16.70;57.70
67777;DHT22;54576;52.020;5.536;2023-05-29T09:38:13;16.80;58.00
67777;DHT22;54576;52.020;5.536;2023-05-29T09:40:41;16.90;56.60
67777;DHT22;54576;52.020;5.536;2023-05-29T09:43:13;17.00;56.50
67777;DHT22;54576;52.020;5.536;2023-05-29T09:45:41;17.10;56.80
67777;DHT22;54576;52.020;5.536;2023-05-29T09:48:08;17.10;56.10
67777;DHT22;54576;52.020;5.536;2023-05-29T09:50:37;17.10;55.70
67777;DHT22;54576;52.020;5.536;2023-05-29T09:53:02;17.20;56.20
67777;DHT22;54576;52.020;5.536;2023-05-29T09:55:30;17.00;56.20
67777;DHT22;54576;52.020;5.536;2023-05-29T09:57:57;17.00;56.70
67777;DHT22;54576;52.020;5.536;2023-05-29T10:00:24;17.00;56.30
67777;DHT22;54576;52.020;5.536;2023-05-29T10:02:49;17.10;56.70
67777;DHT22;54576;52.020;5.536;2023-05-29T10:05:15;17.00;56.30
67777;DHT22;54576;52.020;5.536;2023-05-29T10:07:44;17.00;56.80
67777;DHT22;54576;52.020;5.536;2023-05-29T10:10:14;17.00;55.80
67777;DHT22;54576;52.020;5.536;2023-05-29T10:12:44;17.20;56.00
67777;DHT22;54576;52.020;5.536;2023-05-29T10:15:15;17.20;55.90
67777;DHT22;54576;52.020;5.536;2023-05-29T10:17:54;17.40;56.10
67777;DHT22;54576;52.020;5.536;2023-05-29T10:20:22;17.50;55.70
67777;DHT22;54576;52.020;5.536;2023-05-29T10:22:52;17.60;56.10
67777;DHT22;54576;52.020;5.536;2023-05-29T10:25:20;17.70;55.70
67777;DHT22;54576;52.020;5.536;2023-05-29T10:27:48;17.70;54.90
67777;DHT22;54576;52.020;5.536;2023-05-29T10:30:37;17.90;55.60
67777;DHT22;54576;52.020;5.536;2023-05-29T10:36:15;17.70;51.40
67777;DHT22;54576;52.020;5.536;2023-05-29T10:38:44;17.70;54.90
67777;DHT22;54576;52.020;5.536;2023-05-29T10:43:59;17.80;51.90
67777;DHT22;54576;52.020;5.536;2023-05-29T10:49:18;18.10;51.00
67777;DHT22;54576;52.020;5.536;2023-05-29T10:51:43;18.20;53.60
67777;DHT22;54576;52.020;5.536;2023-05-29T10:54:10;18.10;53.30
67777;DHT22;54576;52.020;5.536;2023-05-29T10:56:36;18.00;54.20
67777;DHT22;54576;52.020;5.536;2023-05-29T10:59:02;17.90;53.80
67777;DHT22;54576;52.020;5.536;2023-05-29T11:01:31;17.80;54.10
67777;DHT22;54576;52.020;5.536;2023-05-29T11:06:47;17.80;52.40
67777;DHT22;54576;52.020;5.536;2023-05-29T11:09:36;18.00;54.50
67777;DHT22;54576;52.020;5.536;2023-05-29T11:12:24;17.90;49.80
67777;DHT22;54576;52.020;5.536;2023-05-29T11:15:05;17.90;50.10
67777;DHT22;54576;52.020;5.536;2023-05-29T11:20:07;18.10;53.60
67777;DHT22;54576;52.020;5.536;2023-05-29T11:25:26;18.20;52.90
67777;DHT22;54576;52.020;5.536;2023-05-29T11:27:51;18.30;54.10
67777;DHT22;54576;52.020;5.536;2023-05-29T11:30:21;18.30;53.30
67777;DHT22;54576;52.020;5.536;2023-05-29T11:32:47;18.50;53.40
67777;DHT22;54576;52.020;5.536;2023-05-29T11:35:14;18.60;52.60
67777;DHT22;54576;52.020;5.536;2023-05-29T11:37:41;18.50;53.30
67777;DHT22;54576;52.020;5.536;2023-05-29T11:40:09;18.50;52.30
67777;DHT22;54576;52.020;5.536;2023-05-29T11:42:35;18.70;53.10
67777;DHT22;54576;52.020;5.536;2023-05-29T11:45:15;18.60;52.20
67777;DHT22;54576;52.020;5.536;2023-05-29T11:50:22;18.80;50.90
67777;DHT22;54576;52.020;5.536;2023-05-29T11:52:48;18.90;52.00
67777;DHT22;54576;52.020;5.536;2023-05-29T11:55:14;19.00;53.00
67777;DHT22;54576;52.020;5.536;2023-05-29T11:57:40;19.10;52.20
67777;DHT22;54576;52.020;5.536;2023-05-29T12:00:07;19.00;52.00
67777;DHT22;54576;52.020;5.536;2023-05-29T12:02:33;19.00;50.80
67777;DHT22;54576;52.020;5.536;2023-05-29T12:05:02;19.00;51.40
67777;DHT22;54576;52.020;5.536;2023-05-29T12:07:28;18.80;48.70
67777;DHT22;54576;52.020;5.536;2023-05-29T12:09:56;18.90;50.50
67777;DHT22;54576;52.020;5.536;2023-05-29T12:12:23;19.10;51.50
67777;DHT22;54576;52.020;5.536;2023-05-29T12:14:51;19.20;47.60
67777;DHT22;54576;52.020;5.536;2023-05-29T12:17:18;19.30;51.60
67777;DHT22;54576;52.020;5.536;2023-05-29T12:19:44;19.40;50.70
67777;DHT22;54576;52.020;5.536;2023-05-29T12:22:09;19.50;50.10
67777;DHT22;54576;52.020;5.536;2023-05-29T12:24:35;19.40;50.60
67777;DHT22;54576;52.020;5.536;2023-05-29T12:27:04;19.30;50.90
67777;DHT22;54576;52.020;5.536;2023-05-29T12:29:30;19.30;50.70
67777;DHT22;54576;52.020;5.536;2023-05-29T12:31:59;19.20;48.10
67777;DHT22;54576;52.020;5.536;2023-05-29T12:34:25;19.10;48.80
67777;DHT22;54576;52.020;5.536;2023-05-29T12:36:53;19.10;49.40
67777;DHT22;54576;52.020;5.536;2023-05-29T12:39:19;19.00;49.90
67777;DHT22;54576;52.020;5.536;2023-05-29T12:41:47;19.00;49.70
67777;DHT22;54576;52.020;5.536;2023-05-29T12:44:13;19.10;49.60
67777;DHT22;54576;52.020;5.536;2023-05-29T12:46:40;19.20;49.10
67777;DHT22;54576;52.020;5.536;2023-05-29T12:49:15;19.20;49.00
67777;DHT22;54576;52.020;5.536;2023-05-29T12:51:42;19.20;49.10
67777;DHT22;54576;52.020;5.536;2023-05-29T12:54:11;19.10;48.30
67777;DHT22;54576;52.020;5.536;2023-05-29T12:56:38;19.10;49.20
67777;DHT22;54576;52.020;5.536;2023-05-29T12:59:06;19.00;49.40
67777;DHT22;54576;52.020;5.536;2023-05-29T13:01:32;18.90;49.90
67777;DHT22;54576;52.020;5.536;2023-05-29T13:03:58;19.10;50.10
67777;DHT22;54576;52.020;5.536;2023-05-29T13:06:23;19.00;49.40
67777;DHT22;54576;52.020;5.536;2023-05-29T13:08:49;19.10;50.10
67777;DHT22;54576;52.020;5.536;2023-05-29T13:11:15;19.20;49.70
67777;DHT22;54576;52.020;5.536;2023-05-29T13:13:40;19.20;49.90
67777;DHT22;54576;52.020;5.536;2023-05-29T13:16:06;19.20;49.60
67777;DHT22;54576;52.020;5.536;2023-05-29T13:18:32;19.20;49.70
67777;DHT22;54576;52.020;5.536;2023-05-29T13:20:59;19.30;49.00
67777;DHT22;54576;52.020;5.536;2023-05-29T13:23:25;19.30;49.00
67777;DHT22;54576;52.020;5.536;2023-05-29T13:25:50;19.40;49.80
67777;DHT22;54576;52.020;5.536;2023-05-29T13:28:16;19.50;49.60
67777;DHT22;54576;52.020;5.536;2023-05-29T13:30:42;19.30;48.30
67777;DHT22;54576;52.020;5.536;2023-05-29T13:33:07;19.20;49.50
67777;DHT22;54576;52.020;5.536;2023-05-29T13:35:33;19.20;49.30
67777;DHT22;54576;52.020;5.536;2023-05-29T13:37:58;19.20;49.90
67777;DHT22;54576;52.020;5.536;2023-05-29T13:40:27;19.10;50.00
67777;DHT22;54576;52.020;5.536;2023-05-29T13:45:20;18.70;99.90
67777;DHT22;54576;52.020;5.536;2023-05-29T13:47:46;18.90;50.20
67777;DHT22;54576;52.020;5.536;2023-05-29T13:50:11;18.90;49.80
67777;DHT22;54576;52.020;5.536;2023-05-29T13:52:37;19.00;50.20
67777;DHT22;54576;52.020;5.536;2023-05-29T13:55:03;19.10;50.50
67777;DHT22;54576;52.020;5.536;2023-05-29T13:57:34;19.30;62.50
67777;DHT22;54576;52.020;5.536;2023-05-29T14:00:00;19.40;49.80
67777;DHT22;54576;52.020;5.536;2023-05-29T14:02:26;19.50;56.30
67777;DHT22;54576;52.020;5.536;2023-05-29T14:04:52;19.40;51.20
67777;DHT22;54576;52.020;5.536;2023-05-29T14:07:20;19.20;49.60
67777;DHT22;54576;52.020;5.536;2023-05-29T14:12:11;19.10;96.60
67777;DHT22;54576;52.020;5.536;2023-05-29T14:14:37;19.10;49.40
67777;DHT22;54576;52.020;5.536;2023-05-29T14:17:03;19.10;64.70
67777;DHT22;54576;52.020;5.536;2023-05-29T14:19:30;19.10;54.20
67777;DHT22;54576;52.020;5.536;2023-05-29T14:21:56;19.20;49.50
67777;DHT22;54576;52.020;5.536;2023-05-29T14:24:21;19.30;49.50
67777;DHT22;54576;52.020;5.536;2023-05-29T14:26:47;19.20;49.50
67777;DHT22;54576;52.020;5.536;2023-05-29T14:29:13;19.20;49.50
67777;DHT22;54576;52.020;5.536;2023-05-29T14:31:39;19.10;49.40
67777;DHT22;54576;52.020;5.536;2023-05-29T14:34:05;19.20;49.00
67777;DHT22;54576;52.020;5.536;2023-05-29T14:36:31;19.20;49.20
67777;DHT22;54576;52.020;5.536;2023-05-29T14:38:57;19.20;48.70
67777;DHT22;54576;52.020;5.536;2023-05-29T14:41:22;19.20;48.60
67777;DHT22;54576;52.020;5.536;2023-05-29T14:43:52;19.30;48.50
67777;DHT22;54576;52.020;5.536;2023-05-29T14:46:18;19.30;48.50
67777;DHT22;54576;52.020;5.536;2023-05-29T14:48:44;19.30;50.00
67777;DHT22;54576;52.020;5.536;2023-05-29T14:51:09;19.40;48.30
67777;DHT22;54576;52.020;5.536;2023-05-29T14:53:36;19.40;48.00
67777;DHT22;54576;52.020;5.536;2023-05-29T14:56:01;19.50;48.50
67777;DHT22;54576;52.020;5.536;2023-05-29T14:58:27;19.60;48.70
67777;DHT22;54576;52.020;5.536;2023-05-29T15:00:53;19.50;48.90
67777;DHT22;54576;52.020;5.536;2023-05-29T15:03:20;19.40;48.60
67777;DHT22;54576;52.020;5.536;2023-05-29T15:05:46;19.30;48.60
67777;DHT22;54576;52.020;5.536;2023-05-29T15:08:11;19.40;48.90
67777;DHT22;54576;52.020;5.536;2023-05-29T15:10:37;19.50;48.60
67777;DHT22;54576;52.020;5.536;2023-05-29T15:13:02;19.50;48.00
67777;DHT22;54576;52.020;5.536;2023-05-29T15:15:29;19.50;48.60
67777;DHT22;54576;52.020;5.536;2023-05-29T15:17:55;19.40;48.00
67777;DHT22;54576;52.020;5.536;2023-05-29T15:20:22;19.40;48.40
67777;DHT22;54576;52.020;5.536;2023-05-29T15:22:48;19.30;47.70
67777;DHT22;54576;52.020;5.536;2023-05-29T15:25:15;19.20;47.90
67777;DHT22;54576;52.020;5.536;2023-05-29T15:27:40;19.20;48.00
67777;DHT22;54576;52.020;5.536;2023-05-29T15:30:13;19.30;48.40
67777;DHT22;54576;52.020;5.536;2023-05-29T15:35:10;19.20;47.40
67777;DHT22;54576;52.020;5.536;2023-05-29T15:37:37;19.20;48.60
67777;DHT22;54576;52.020;5.536;2023-05-29T15:40:03;19.20;48.60
67777;DHT22;54576;52.020;5.536;2023-05-29T15:42:29;19.20;48.30
67777;DHT22;54576;52.020;5.536;2023-05-29T15:44:55;19.20;48.30
67777;DHT22;54576;52.020;5.536;2023-05-29T15:47:21;19.10;48.40
67777;DHT22;54576;52.020;5.536;2023-05-29T15:49:46;19.20;48.60
67777;DHT22;54576;52.020;5.536;2023-05-29T15:52:13;19.20;47.70
67777;DHT22;54576;52.020;5.536;2023-05-29T15:54:39;19.20;48.60
67777;DHT22;54576;52.020;5.536;2023-05-29T15:57:05;19.10;48.70
67777;DHT22;54576;52.020;5.536;2023-05-29T15:59:32;19.10;48.70
67777;DHT22;54576;52.020;5.536;2023-05-29T16:01:58;19.00;48.60
67777;DHT22;54576;52.020;5.536;2023-05-29T16:04:23;19.10;48.50
67777;DHT22;54576;52.020;5.536;2023-05-29T16:06:49;19.20;48.60
67777;DHT22;54576;52.020;5.536;2023-05-29T16:09:17;19.10;48.60
67777;DHT22;54576;52.020;5.536;2023-05-29T16:11:43;19.10;48.10
67777;DHT22;54576;52.020;5.536;2023-05-29T16:14:09;19.20;48.00
67777;DHT22;54576;52.020;5.536;2023-05-29T16:16:34;19.20;48.00
67777;DHT22;54576;52.020;5.536;2023-05-29T16:19:00;19.20;47.90
67777;DHT22;54576;52.020;5.536;2023-05-29T16:21:26;19.10;47.60
67777;DHT22;54576;52.020;5.536;2023-05-29T16:23:52;19.00;47.70
67777;DHT22;54576;52.020;5.536;2023-05-29T16:26:23;18.90;46.90
67777;DHT22;54576;52.020;5.536;2023-05-29T16:28:52;18.90;47.90
67777;DHT22;54576;52.020;5.536;2023-05-29T16:31:17;18.80;47.60
67777;DHT22;54576;52.020;5.536;2023-05-29T16:33:43;18.80;47.50